createdAt,value
2022-11-24T00:01:15.549Z,53.58
2022-11-24T00:03:44.102Z,53.75
2022-11-24T00:06:14.026Z,52.28
2022-11-24T00:08:43.576Z,51.63
2022-11-24T00:11:13.004Z,51.92
2022-11-24T00:13:40.866Z,53.95
2022-11-24T00:16:11.592Z,52.63
2022-11-24T00:18:42.289Z,52.03
2022-11-24T00:21:10.661Z,54.05
2022-11-24T00:23:39.196Z,53.00
2022-11-24T00:26:09.164Z,52.13
2022-11-24T00:28:38.177Z,53.22
2022-11-24T00:31:17.194Z,54.90
2022-11-24T00:33:47.879Z,53.95
2022-11-24T00:36:17.248Z,54.08
2022-11-24T00:38:45.523Z,52.83
2022-11-24T00:41:13.665Z,53.22
2022-11-24T00:43:41.496Z,53.85
2022-11-24T00:46:09.496Z,55.45
2022-11-24T00:48:37.417Z,51.78
2022-11-24T00:51:09.417Z,54.83
2022-11-24T00:53:37.420Z,51.58
2022-11-24T00:56:05.940Z,56.80
2022-11-24T00:58:34.471Z,53.92
2022-11-24T01:01:07.117Z,54.25
2022-11-24T01:03:35.302Z,54.75
2022-11-24T01:06:09.742Z,54.58
2022-11-24T01:08:38.790Z,53.05
2022-11-24T01:11:11.509Z,53.25
2022-11-24T01:13:39.640Z,53.38
2022-11-24T01:16:08.377Z,51.70
2022-11-24T01:18:36.274Z,52.90
2022-11-24T01:21:10.253Z,52.30
2022-11-24T01:23:38.325Z,52.25
2022-11-24T01:26:07.115Z,53.08
2022-11-24T01:28:35.653Z,51.42
2022-11-24T01:31:05.293Z,51.58
2022-11-24T01:33:33.982Z,49.67
2022-11-24T01:36:02.261Z,49.53
2022-11-24T01:38:31.554Z,51.40
2022-11-24T01:41:03.569Z,52.58
2022-11-24T01:43:31.584Z,49.83
2022-11-24T01:46:03.781Z,52.03
2022-11-24T01:48:37.621Z,51.17
2022-11-24T01:51:09.465Z,50.63
2022-11-24T01:53:43.034Z,51.00
2022-11-24T01:56:12.152Z,52.42
2022-11-24T01:58:43.729Z,51.35
2022-11-24T02:01:12.244Z,52.47
2022-11-24T02:03:43.104Z,48.50
2022-11-24T02:06:14.168Z,50.85
2022-11-24T02:08:48.709Z,48.90
2022-11-24T02:11:16.756Z,49.78
2022-11-24T02:13:46.684Z,48.38
2022-11-24T02:16:14.562Z,52.47
2022-11-24T02:18:43.561Z,49.78
2022-11-24T02:21:13.972Z,50.13
2022-11-24T02:23:50.968Z,51.60
2022-11-24T02:26:30.724Z,46.95
2022-11-24T02:28:58.782Z,50.85
2022-11-24T02:31:26.990Z,48.00
2022-11-24T02:33:55.858Z,47.83
2022-11-24T02:36:23.702Z,47.35
2022-11-24T02:38:51.513Z,46.38
2022-11-24T02:41:22.899Z,46.20
2022-11-24T02:43:55.927Z,45.42
2022-11-24T02:46:23.744Z,46.05
2022-11-24T02:48:51.581Z,44.08
2022-11-24T02:51:19.429Z,42.28
2022-11-24T02:53:47.318Z,46.47
2022-11-24T02:56:15.304Z,43.03
2022-11-24T02:58:43.097Z,45.67
2022-11-24T03:01:12.325Z,42.65
2022-11-24T03:03:40.388Z,43.45
2022-11-24T03:06:08.169Z,46.38
2022-11-24T03:08:35.937Z,43.45
2022-11-24T03:11:04.627Z,44.20
2022-11-24T03:13:32.385Z,45.45
2022-11-24T03:16:00.305Z,42.13
2022-11-24T03:18:29.522Z,40.42
2022-11-24T03:21:00.963Z,43.17
2022-11-24T03:23:28.920Z,43.70
2022-11-24T03:25:56.669Z,42.65
2022-11-24T03:28:24.452Z,45.20
2022-11-24T03:30:52.242Z,42.97
2022-11-24T03:33:20.178Z,40.63
2022-11-24T03:35:49.411Z,41.90
2022-11-24T03:38:17.253Z,41.35
2022-11-24T03:40:45.081Z,41.50
2022-11-24T03:43:12.945Z,41.65
2022-11-24T03:45:48.047Z,43.42
2022-11-24T03:48:16.484Z,40.97
2022-11-24T03:50:44.824Z,40.50
2022-11-24T03:53:14.036Z,40.22
2022-11-24T03:55:44.348Z,39.53
2022-11-24T03:58:12.184Z,38.67
2022-11-24T04:00:40.997Z,40.22
2022-11-24T04:03:08.905Z,40.75
2022-11-24T04:05:37.037Z,39.72
2022-11-24T04:08:05.352Z,38.20
2022-11-24T04:10:36.834Z,39.42
2022-11-24T04:13:04.232Z,39.67
2022-11-24T04:15:32.112Z,40.00
2022-11-24T04:17:59.781Z,37.72
2022-11-24T04:20:27.633Z,36.78
2022-11-24T04:22:55.346Z,40.33
2022-11-24T04:25:22.997Z,38.35
2022-11-24T04:27:54.067Z,36.67
2022-11-24T04:30:22.968Z,37.88
2022-11-24T04:32:51.183Z,36.70
2022-11-24T04:35:19.434Z,36.22
2022-11-24T04:37:47.197Z,38.10
2022-11-24T04:40:15.736Z,38.15
2022-11-24T04:42:43.511Z,37.33
2022-11-24T04:45:13.009Z,38.30
2022-11-24T04:47:40.661Z,37.83
2022-11-24T04:50:09.931Z,37.47
2022-11-24T04:52:37.615Z,36.15
2022-11-24T04:55:05.540Z,36.92
2022-11-24T04:57:33.284Z,38.28
2022-11-24T05:00:00.957Z,39.13
2022-11-24T05:02:30.022Z,37.83
2022-11-24T05:04:57.701Z,35.45
2022-11-24T05:07:25.400Z,37.83
2022-11-24T05:10:10.817Z,36.70
2022-11-24T05:12:39.567Z,39.20
2022-11-24T05:15:08.194Z,34.88
2022-11-24T05:17:39.156Z,35.55
2022-11-24T05:20:08.662Z,31.88
2022-11-24T05:22:36.462Z,34.13
2022-11-24T05:25:04.506Z,32.65
2022-11-24T05:27:32.118Z,34.00
2022-11-24T05:29:59.792Z,33.72
2022-11-24T05:32:27.595Z,34.78
2022-11-24T05:34:56.779Z,35.58
2022-11-24T05:37:25.548Z,34.85
2022-11-24T05:39:54.501Z,33.67
2022-11-24T05:42:44.871Z,29.42
2022-11-24T05:45:16.401Z,28.38
2022-11-24T05:47:44.133Z,30.48
2022-11-24T05:50:16.121Z,31.23
2022-11-24T05:52:43.939Z,37.05
2022-11-24T05:55:14.574Z,32.20
2022-11-24T05:57:42.744Z,31.60
2022-11-24T06:00:11.873Z,27.30
2022-11-24T06:02:39.676Z,30.80
2022-11-24T06:05:08.103Z,31.50
2022-11-24T06:07:37.376Z,30.80
2022-11-24T06:10:05.830Z,29.60
2022-11-24T06:12:33.510Z,28.92
2022-11-24T06:15:01.132Z,27.63
2022-11-24T06:17:29.092Z,28.92
2022-11-24T06:19:56.734Z,28.42
2022-11-24T06:22:24.382Z,27.33
2022-11-24T06:24:53.447Z,26.85
2022-11-24T06:27:21.090Z,26.48
2022-11-24T06:29:48.799Z,31.98
2022-11-24T06:32:17.011Z,27.90
2022-11-24T06:34:44.683Z,29.20
2022-11-24T06:37:12.347Z,30.50
2022-11-24T06:39:39.936Z,28.33
2022-11-24T06:42:08.996Z,32.35
2022-11-24T06:44:36.759Z,27.95
2022-11-24T06:47:04.572Z,28.10
2022-11-24T06:49:32.188Z,26.80
2022-11-24T06:51:59.808Z,27.30
2022-11-24T06:54:27.466Z,25.10
2022-11-24T06:56:57.445Z,26.25
2022-11-24T06:59:27.656Z,26.27
2022-11-24T07:01:55.337Z,25.80
2022-11-24T07:04:22.961Z,26.67
2022-11-24T07:06:50.666Z,24.40
2022-11-24T07:09:18.317Z,24.98
2022-11-24T07:11:46.013Z,24.55
2022-11-24T07:14:13.655Z,25.20
2022-11-24T07:16:43.155Z,24.60
2022-11-24T07:19:11.074Z,26.13
2022-11-24T07:21:38.704Z,27.95
2022-11-24T07:24:07.093Z,27.70
2022-11-24T07:26:37.156Z,25.60
2022-11-24T07:29:05.783Z,24.45
2022-11-24T07:31:33.570Z,27.38
2022-11-24T07:34:02.634Z,26.45
2022-11-24T07:36:30.294Z,25.73
2022-11-24T07:38:58.127Z,24.98
2022-11-24T07:41:25.805Z,25.13
2022-11-24T07:43:53.422Z,25.48
2022-11-24T07:46:21.511Z,25.67
2022-11-24T07:48:49.159Z,26.17
2022-11-24T07:51:18.281Z,24.90
2022-11-24T07:53:46.627Z,25.23
2022-11-24T07:56:14.247Z,26.50
2022-11-24T07:58:41.919Z,25.48
2022-11-24T08:01:11.880Z,24.60
2022-11-24T08:03:39.681Z,26.80
2022-11-24T08:06:23.616Z,25.75
2022-11-24T08:08:54.394Z,25.20
2022-11-24T08:11:22.339Z,26.33
2022-11-24T08:13:49.982Z,27.85
2022-11-24T08:16:19.739Z,27.63
2022-11-24T08:18:51.438Z,27.35
2022-11-24T08:21:19.434Z,27.80
2022-11-24T08:23:47.262Z,26.60
2022-11-24T08:26:19.227Z,28.55
2022-11-24T08:28:47.989Z,27.38
2022-11-24T08:31:18.673Z,25.83
2022-11-24T08:33:46.974Z,27.38
2022-11-24T08:36:15.995Z,27.20
2022-11-24T08:38:45.187Z,27.52
2022-11-24T08:41:15.152Z,27.00
2022-11-24T08:43:44.738Z,26.58
2022-11-24T08:46:16.809Z,26.57
2022-11-24T08:48:45.478Z,26.13
2022-11-24T08:51:14.724Z,26.42
2022-11-24T08:53:43.100Z,25.55
2022-11-24T08:56:12.863Z,27.23
2022-11-24T08:58:41.541Z,25.65
2022-11-24T09:01:12.225Z,26.15
2022-11-24T09:03:43.497Z,29.27
2022-11-24T09:06:16.606Z,27.00
2022-11-24T09:08:44.384Z,26.05
2022-11-24T09:11:14.048Z,24.38
2022-11-24T09:13:41.920Z,26.57
2022-11-24T09:16:12.885Z,28.70
2022-11-24T09:18:40.854Z,27.02
2022-11-24T09:21:09.255Z,26.48
2022-11-24T09:23:37.291Z,25.80
2022-11-24T09:26:06.518Z,26.83
2022-11-24T09:28:34.351Z,26.50
2022-11-24T09:31:03.241Z,26.58
2022-11-24T09:33:33.638Z,27.30
2022-11-24T09:36:01.668Z,26.77
2022-11-24T09:38:29.640Z,27.02
2022-11-24T09:40:57.671Z,26.85
2022-11-24T09:43:33.839Z,26.85
2022-11-24T09:46:09.798Z,28.35
2022-11-24T09:48:41.825Z,27.40
2022-11-24T09:51:12.992Z,27.95
2022-11-24T09:53:45.583Z,28.67
2022-11-24T09:56:20.722Z,28.92
2022-11-24T09:58:50.630Z,27.40
2022-11-24T10:01:20.653Z,29.20
2022-11-24T10:03:51.563Z,26.55
2022-11-24T10:06:23.730Z,26.98
2022-11-24T10:09:25.477Z,28.45
2022-11-24T10:12:03.270Z,28.90
2022-11-24T10:14:54.863Z,29.08
2022-11-24T10:17:39.363Z,26.60
2022-11-24T10:20:13.922Z,27.30
2022-11-24T10:22:52.583Z,26.65
2022-11-24T10:25:25.822Z,27.55
2022-11-24T10:27:59.811Z,26.45
2022-11-24T10:30:28.073Z,27.88
2022-11-24T10:32:59.510Z,27.52
2022-11-24T10:35:31.854Z,28.27
2022-11-24T10:38:08.621Z,28.10
2022-11-24T10:40:56.647Z,29.02
2022-11-24T10:43:27.355Z,27.83
2022-11-24T10:45:56.218Z,30.85
2022-11-24T10:48:27.203Z,28.98
2022-11-24T10:51:06.594Z,46.70
2022-11-24T10:53:36.581Z,35.08
2022-11-24T10:56:06.270Z,29.77
2022-11-24T10:58:38.058Z,27.73
2022-11-24T11:01:22.190Z,29.25
2022-11-24T11:03:52.455Z,27.77
2022-11-24T11:06:24.564Z,29.08
2022-11-24T11:09:17.583Z,27.80
2022-11-24T11:11:46.980Z,26.23
2022-11-24T11:14:29.074Z,28.67
2022-11-24T11:16:58.249Z,28.73
2022-11-24T11:19:48.826Z,28.67
2022-11-24T11:22:25.773Z,29.13
2022-11-24T11:25:05.669Z,28.30
2022-11-24T11:27:33.329Z,27.92
2022-11-24T11:36:11.789Z,26.83
2022-11-24T11:38:42.351Z,29.23
2022-11-24T11:43:45.734Z,29.92
2022-11-24T11:46:15.582Z,29.02
2022-11-24T11:48:46.711Z,29.38
2022-11-24T11:51:40.150Z,29.25
2022-11-24T11:54:17.820Z,29.88
2022-11-24T11:56:48.911Z,29.23
2022-11-24T11:59:38.923Z,27.88
2022-11-24T12:02:50.036Z,29.85
2022-11-24T12:05:29.993Z,30.60
2022-11-24T12:08:20.799Z,30.05
2022-11-24T12:10:57.448Z,29.67
2022-11-24T12:13:52.403Z,28.05
2022-11-24T12:16:33.279Z,29.42
2022-11-24T12:19:15.647Z,31.27
2022-11-24T12:21:53.116Z,27.40
2022-11-24T12:24:31.146Z,28.98
2022-11-24T12:27:05.064Z,29.58
2022-11-24T12:29:53.192Z,41.15
2022-11-24T12:32:38.775Z,32.90
2022-11-24T12:35:18.064Z,30.13
2022-11-24T12:37:59.057Z,29.20
2022-11-24T12:40:46.633Z,30.25
2022-11-24T12:43:23.948Z,29.15
2022-11-24T12:46:00.419Z,31.40
2022-11-24T12:48:44.004Z,29.80
2022-11-24T12:51:18.386Z,30.30
2022-11-24T12:53:47.515Z,29.58
2022-11-24T12:56:17.798Z,28.73
2022-11-24T12:58:55.484Z,30.23
2022-11-24T13:01:32.196Z,29.92
2022-11-24T13:04:13.251Z,28.63
2022-11-24T13:06:51.708Z,28.75
2022-11-24T13:09:19.983Z,29.73
2022-11-24T13:11:49.182Z,28.08
2022-11-24T13:14:21.620Z,30.42
2022-11-24T13:19:43.335Z,29.27
2022-11-24T13:22:16.364Z,30.40
2022-11-24T13:24:45.388Z,30.23
2022-11-24T13:27:39.944Z,38.15
2022-11-24T13:30:49.649Z,34.20
2022-11-24T13:33:31.773Z,30.65
2022-11-24T13:36:30.819Z,32.00
2022-11-24T13:38:59.467Z,32.65
2022-11-24T13:42:10.389Z,35.13
2022-11-24T13:44:59.483Z,28.90
2022-11-24T13:47:38.817Z,30.25
2022-11-24T13:50:10.997Z,30.20
2022-11-24T13:52:43.522Z,29.45
2022-11-24T13:55:24.310Z,30.15
2022-11-24T13:57:54.361Z,31.02
2022-11-24T14:00:23.762Z,30.75
2022-11-24T14:02:52.454Z,31.35
2022-11-24T14:05:28.418Z,31.17
2022-11-24T14:07:56.200Z,29.52
2022-11-24T14:10:31.944Z,29.30
2022-11-24T14:13:17.912Z,29.52
2022-11-24T14:15:45.917Z,29.33
2022-11-24T14:18:22.698Z,28.88
2022-11-24T14:20:51.943Z,28.05
2022-11-24T14:23:19.727Z,27.88
2022-11-24T14:25:49.431Z,29.90
2022-11-24T14:28:23.949Z,28.00
2022-11-24T14:30:51.780Z,28.98
2022-11-24T14:33:21.082Z,29.75
2022-11-24T14:35:51.867Z,28.98
2022-11-24T14:38:19.518Z,29.05
2022-11-24T14:40:49.694Z,36.50
2022-11-24T14:43:21.563Z,31.45
2022-11-24T14:45:54.275Z,29.50
2022-11-24T14:48:28.734Z,29.70
2022-11-24T14:51:08.974Z,32.15
2022-11-24T14:53:37.197Z,30.98
2022-11-24T14:56:09.784Z,31.20
2022-11-24T14:58:42.035Z,31.13
2022-11-24T15:01:19.496Z,31.63
2022-11-24T15:03:47.757Z,31.98
2022-11-24T15:06:20.366Z,30.20
2022-11-24T15:08:50.235Z,30.33
2022-11-24T15:11:17.967Z,31.40
2022-11-24T15:13:55.331Z,29.33
2022-11-24T15:16:26.031Z,28.88
2022-11-24T15:19:00.200Z,29.67
2022-11-24T15:21:34.296Z,30.58
2022-11-24T15:24:17.197Z,29.20
2022-11-24T15:26:45.828Z,30.35
2022-11-24T15:29:14.142Z,29.85
2022-11-24T15:31:46.455Z,29.42
2022-11-24T15:34:18.867Z,31.80
2022-11-24T15:36:48.167Z,30.48
2022-11-24T15:39:16.132Z,33.78
2022-11-24T15:41:44.164Z,31.02
2022-11-24T15:44:12.118Z,32.03
2022-11-24T15:46:40.125Z,37.25
2022-11-24T15:49:08.156Z,35.55
2022-11-24T15:51:40.367Z,31.13
2022-11-24T15:54:14.756Z,31.50
2022-11-24T15:56:44.376Z,33.08
2022-11-24T15:59:20.253Z,32.47
2022-11-24T16:01:50.674Z,33.65
2022-11-24T16:04:18.936Z,32.90
2022-11-24T16:06:46.686Z,33.08
2022-11-24T16:09:17.743Z,31.38
2022-11-24T16:11:45.595Z,30.83
2022-11-24T16:14:13.563Z,28.90
2022-11-24T16:16:41.891Z,33.75
2022-11-24T16:19:10.104Z,31.30
2022-11-24T16:21:38.004Z,31.55
2022-11-24T16:24:06.247Z,32.15
2022-11-24T16:26:35.551Z,31.75
2022-11-24T16:29:03.542Z,32.80
2022-11-24T16:31:31.571Z,32.22
2022-11-24T16:33:59.577Z,34.95
2022-11-24T16:36:28.342Z,33.10
2022-11-24T16:38:56.219Z,32.30
2022-11-24T16:41:23.900Z,32.53
2022-11-24T16:43:53.742Z,31.42
2022-11-24T16:46:24.032Z,30.15
2022-11-24T16:48:54.936Z,30.58
2022-11-24T16:51:24.270Z,31.05
2022-11-24T16:53:58.260Z,32.13
2022-11-24T16:56:26.399Z,30.48
2022-11-24T16:58:55.870Z,30.35
2022-11-24T17:01:23.962Z,29.75
2022-11-24T17:03:51.704Z,31.65
2022-11-24T17:06:20.120Z,30.67
2022-11-24T17:08:48.381Z,29.75
2022-11-24T17:11:17.991Z,31.58
2022-11-24T17:13:47.008Z,31.60
2022-11-24T17:16:17.667Z,29.45
2022-11-24T17:18:45.884Z,30.92
2022-11-24T17:21:15.327Z,31.75
2022-11-24T17:23:43.008Z,31.63
2022-11-24T17:26:13.701Z,33.53
2022-11-24T17:28:42.307Z,30.77
2022-11-24T17:31:18.714Z,29.35
2022-11-24T17:33:46.391Z,32.92
2022-11-24T17:36:14.005Z,28.70
2022-11-24T17:38:41.667Z,29.35
2022-11-24T17:41:09.490Z,26.65
2022-11-24T17:43:37.100Z,30.75
2022-11-24T17:46:06.261Z,30.77
2022-11-24T17:48:36.524Z,31.52
2022-11-24T17:51:07.731Z,29.05
2022-11-24T17:53:37.420Z,30.95
2022-11-24T17:56:05.359Z,29.37
2022-11-24T17:58:38.314Z,29.48
2022-11-24T18:01:09.331Z,29.88
2022-11-24T18:03:39.771Z,34.47
2022-11-24T18:06:08.290Z,29.95
2022-11-24T18:08:36.213Z,28.92
2022-11-24T18:11:04.929Z,30.02
2022-11-24T18:13:55.339Z,31.77
2022-11-24T18:16:20.524Z,37.60
2022-11-24T18:18:51.070Z,30.38
2022-11-24T18:21:18.910Z,31.75
2022-11-24T18:23:47.194Z,30.92
2022-11-24T18:26:16.518Z,35.03
2022-11-24T18:28:44.797Z,32.42
2022-11-24T18:31:14.261Z,34.10
2022-11-24T18:33:43.954Z,33.17
2022-11-24T18:36:14.801Z,35.00
2022-11-24T18:38:42.484Z,32.63
2022-11-24T18:41:11.618Z,33.45
2022-11-24T18:43:39.250Z,32.25
2022-11-24T18:46:08.724Z,32.65
2022-11-24T18:48:36.836Z,30.30
2022-11-24T18:51:05.050Z,33.63
2022-11-24T18:53:34.018Z,32.60
2022-11-24T18:56:03.614Z,30.33
2022-11-24T18:58:32.899Z,33.90
2022-11-24T19:01:07.909Z,33.38
2022-11-24T19:03:39.121Z,36.58
2022-11-24T19:06:13.147Z,36.10
2022-11-24T19:08:42.238Z,35.80
2022-11-24T19:11:17.605Z,35.67
2022-11-24T19:13:45.250Z,33.92
2022-11-24T19:16:13.312Z,34.17
2022-11-24T19:18:41.026Z,35.22
2022-11-24T19:21:08.882Z,33.72
2022-11-24T19:23:36.536Z,33.88
2022-11-24T19:26:06.934Z,39.97
2022-11-24T19:28:34.923Z,34.13
2022-11-24T19:31:02.820Z,32.97
2022-11-24T19:33:30.705Z,33.97
2022-11-24T19:36:03.608Z,32.85
2022-11-24T19:38:32.762Z,34.15
2022-11-24T19:41:06.436Z,30.90
2022-11-24T19:43:34.818Z,36.88
2022-11-24T19:46:02.998Z,38.35
2022-11-24T19:48:34.648Z,34.55
2022-11-24T19:51:03.230Z,39.13
2022-11-24T19:53:31.710Z,37.05
2022-11-24T19:56:05.889Z,38.13
2022-11-24T19:58:33.895Z,33.55
2022-11-24T20:01:07.873Z,36.67
2022-11-24T20:03:35.771Z,34.97
2022-11-24T20:06:03.724Z,36.33
2022-11-24T20:08:34.015Z,37.55
2022-11-24T20:11:06.971Z,36.67
2022-11-24T20:13:35.950Z,35.03
2022-11-24T20:16:04.842Z,34.83
2022-11-24T20:18:37.581Z,35.20
2022-11-24T20:21:10.960Z,34.13
2022-11-24T20:23:39.040Z,38.80
2022-11-24T20:26:10.011Z,37.58
2022-11-24T20:28:37.699Z,40.05
2022-11-24T20:31:07.460Z,37.20
2022-11-24T20:33:35.655Z,35.72
2022-11-24T20:36:05.980Z,36.67
2022-11-24T20:38:34.420Z,36.85
2022-11-24T20:41:08.747Z,33.70
2022-11-24T20:43:38.556Z,37.15
2022-11-24T20:46:08.294Z,37.78
2022-11-24T20:48:36.776Z,34.50
2022-11-24T20:51:07.143Z,34.45
2022-11-24T20:53:35.835Z,31.40
2022-11-24T20:56:06.033Z,33.92
2022-11-24T20:58:34.841Z,31.25
2022-11-24T21:01:08.639Z,32.92
2022-11-24T21:03:42.622Z,32.05
2022-11-24T21:06:12.292Z,34.85
2022-11-24T21:08:41.981Z,34.58
2022-11-24T21:11:12.038Z,34.67
2022-11-24T21:13:40.868Z,32.90
2022-11-24T21:16:17.774Z,33.17
2022-11-24T21:18:46.850Z,35.60
2022-11-24T21:21:15.297Z,33.63
2022-11-24T21:23:44.940Z,33.50
2022-11-24T21:26:16.817Z,30.37
2022-11-24T21:28:46.754Z,28.65
2022-11-24T21:31:17.751Z,33.65
2022-11-24T21:33:47.431Z,31.08
2022-11-24T21:36:16.439Z,28.50
2022-11-24T21:38:44.675Z,30.20
2022-11-24T21:41:13.894Z,26.58
2022-11-24T21:43:41.683Z,28.15
2022-11-24T21:46:11.175Z,33.08
2022-11-24T21:48:41.653Z,32.78
2022-11-24T21:53:39.128Z,31.67
2022-11-24T21:56:09.689Z,31.45
2022-11-24T22:01:08.716Z,46.47
2022-11-24T22:03:36.458Z,29.77
2022-11-24T22:06:05.733Z,29.48
2022-11-24T22:08:33.701Z,27.60
2022-11-24T22:11:02.078Z,27.38
2022-11-24T22:13:29.976Z,27.38
2022-11-24T22:16:05.155Z,23.42
2022-11-24T22:18:34.205Z,26.30
2022-11-24T22:21:02.734Z,28.95
2022-11-24T22:23:32.412Z,28.88
2022-11-24T22:26:03.851Z,29.47
2022-11-24T22:28:32.974Z,28.33
2022-11-24T22:31:05.355Z,29.42
2022-11-24T22:33:33.238Z,30.10
2022-11-24T22:36:02.022Z,27.92
2022-11-24T22:38:30.881Z,29.67
2022-11-24T22:41:03.758Z,28.60
2022-11-24T22:43:33.187Z,27.42
2022-11-24T22:46:04.565Z,32.28
2022-11-24T22:48:32.280Z,31.25
2022-11-24T22:51:04.252Z,35.15
2022-11-24T22:53:32.113Z,34.55
2022-11-24T22:56:04.327Z,33.08
2022-11-24T22:58:32.857Z,32.42
2022-11-24T23:01:05.359Z,33.25
2022-11-24T23:03:33.670Z,30.67
2022-11-24T23:06:01.673Z,33.42
2022-11-24T23:08:29.346Z,34.53
2022-11-24T23:11:00.752Z,32.08
2022-11-24T23:13:29.828Z,31.67
2022-11-24T23:16:01.537Z,30.38
2022-11-24T23:18:29.577Z,29.17
2022-11-24T23:20:57.503Z,28.27
2022-11-24T23:23:25.151Z,30.98
2022-11-24T23:25:52.782Z,30.05
2022-11-24T23:28:20.455Z,29.48
2022-11-24T23:30:49.429Z,29.67
2022-11-24T23:33:17.080Z,27.25
2022-11-24T23:35:44.735Z,28.65
2022-11-24T23:38:12.380Z,27.70
2022-11-24T23:40:39.983Z,30.10
2022-11-24T23:43:07.570Z,27.77
2022-11-24T23:45:35.247Z,29.88
2022-11-24T23:48:04.375Z,30.50
2022-11-24T23:50:32.063Z,30.13
2022-11-24T23:52:59.728Z,28.20
2022-11-24T23:55:27.395Z,28.83
2022-11-24T23:57:55.056Z,28.30
